KRST/RST METAR and TAF weather

Enter ICAO airport designator
Station Type Date Time Source
KRST METAR 2018/12/12 11:54 UTC NOAA

KRST 121154Z 02007KT 4SM BR OVC007 M04/M05 A2965 RMK AO2 SLP059 7//// T10391050 11028 21044 55003


Station Type Date Time Source
KRST Decoded METAR 2018/12/12 11:54 UTC NOAA

ROCHESTER INTERNATIONAL AIRPORT , MN, United States (KRST) 43-54N 092-30W 403M
Dec 12, 2018 - 06:54 AM EST / 2018.12.12 1154 UTC
Wind: from the NNE (020 degrees) at 8 MPH (7 KT):0
Visibility: 4 mile(s):0
Sky conditions: overcast
Weather: mist
Temperature: 25.0 F (-3.9 C)
Windchill: 15 F (-9 C):1
Dew Point: 23.0 F (-5.0 C)
Relative Humidity: 92%
Pressure (altimeter): 29.65 in. Hg (1004 hPa)
Pressure tendency: 0.01 inches (0.3 hPa) lower than three hours ago
ob: KRST 121154Z 02007KT 4SM BR OVC007 M04/M05 A2965 RMK AO2 SLP059 7//// T10391050 11028 21044 55003
cycle: 12

Station Type Date Time Source
KRST TAF 2018/12/12 12:42 UTC NOAA

TAF KRST 121139Z 1212/1312 03006KT 4SM BR OVC008
FM121400 34010KT 2SM BR OVC005
FM121700 32010KT 6SM BR OVC009
FM130000 VRB04KT P6SM OVC014
FM130600 16005KT 4SM HZ OVC012


Example: see airport list